sensor_id;sensor_type;location;lat;lon;timestamp;P1;durP1;ratioP1;P2;durP2;ratioP2
4021;SDS011;2025;48.260;16.432;2023-02-28T00:01:07;12.10;;;4.45;;
4021;SDS011;2025;48.260;16.432;2023-02-28T00:03:34;11.23;;;5.15;;
4021;SDS011;2025;48.260;16.432;2023-02-28T00:06:01;12.68;;;4.97;;
4021;SDS011;2025;48.260;16.432;2023-02-28T00:08:29;10.60;;;4.05;;
4021;SDS011;2025;48.260;16.432;2023-02-28T00:13:26;11.98;;;3.30;;
4021;SDS011;2025;48.260;16.432;2023-02-28T00:18:26;9.60;;;4.22;;
4021;SDS011;2025;48.260;16.432;2023-02-28T00:20:54;14.27;;;3.63;;
4021;SDS011;2025;48.260;16.432;2023-02-28T00:23:21;13.60;;;4.00;;
4021;SDS011;2025;48.260;16.432;2023-02-28T00:25:48;10.70;;;4.63;;
4021;SDS011;2025;48.260;16.432;2023-02-28T00:28:16;9.48;;;5.03;;
4021;SDS011;2025;48.260;16.432;2023-02-28T00:30:44;12.00;;;4.40;;
4021;SDS011;2025;48.260;16.432;2023-02-28T00:33:11;9.07;;;4.50;;
4021;SDS011;2025;48.260;16.432;2023-02-28T00:38:04;9.98;;;4.35;;
4021;SDS011;2025;48.260;16.432;2023-02-28T00:42:58;9.32;;;3.40;;
4021;SDS011;2025;48.260;16.432;2023-02-28T00:45:26;10.90;;;4.97;;
4021;SDS011;2025;48.260;16.432;2023-02-28T00:47:53;11.95;;;3.70;;
4021;SDS011;2025;48.260;16.432;2023-02-28T00:50:20;10.23;;;3.60;;
4021;SDS011;2025;48.260;16.432;2023-02-28T00:55:14;9.57;;;4.25;;
4021;SDS011;2025;48.260;16.432;2023-02-28T00:57:41;13.23;;;4.75;;
4021;SDS011;2025;48.260;16.432;2023-02-28T01:00:09;15.55;;;4.43;;
4021;SDS011;2025;48.260;16.432;2023-02-28T01:02:38;11.25;;;4.93;;
4021;SDS011;2025;48.260;16.432;2023-02-28T01:05:05;10.93;;;4.72;;
4021;SDS011;2025;48.260;16.432;2023-02-28T01:07:32;12.13;;;4.85;;
4021;SDS011;2025;48.260;16.432;2023-02-28T01:12:26;10.70;;;4.82;;
4021;SDS011;2025;48.260;16.432;2023-02-28T01:17:19;10.77;;;3.92;;
4021;SDS011;2025;48.260;16.432;2023-02-28T01:22:14;11.45;;;4.60;;
4021;SDS011;2025;48.260;16.432;2023-02-28T01:27:08;10.25;;;3.90;;
4021;SDS011;2025;48.260;16.432;2023-02-28T01:32:01;16.20;;;4.78;;
4021;SDS011;2025;48.260;16.432;2023-02-28T01:34:29;9.32;;;3.50;;
4021;SDS011;2025;48.260;16.432;2023-02-28T01:36:57;10.75;;;4.50;;
4021;SDS011;2025;48.260;16.432;2023-02-28T01:39:24;11.07;;;3.47;;
4021;SDS011;2025;48.260;16.432;2023-02-28T01:41:51;10.63;;;4.28;;
4021;SDS011;2025;48.260;16.432;2023-02-28T01:47:22;10.23;;;4.88;;
4021;SDS011;2025;48.260;16.432;2023-02-28T01:49:53;11.30;;;4.75;;
4021;SDS011;2025;48.260;16.432;2023-02-28T01:52:22;11.60;;;4.88;;
4021;SDS011;2025;48.260;16.432;2023-02-28T01:54:51;11.93;;;4.75;;
4021;SDS011;2025;48.260;16.432;2023-02-28T01:57:21;12.50;;;5.07;;
4021;SDS011;2025;48.260;16.432;2023-02-28T01:59:51;9.75;;;4.57;;
4021;SDS011;2025;48.260;16.432;2023-02-28T02:02:24;11.02;;;4.78;;
4021;SDS011;2025;48.260;16.432;2023-02-28T02:04:54;9.57;;;3.67;;
4021;SDS011;2025;48.260;16.432;2023-02-28T02:07:25;12.40;;;4.88;;
4021;SDS011;2025;48.260;16.432;2023-02-28T02:09:59;12.38;;;5.78;;
4021;SDS011;2025;48.260;16.432;2023-02-28T02:12:27;11.57;;;4.93;;
4021;SDS011;2025;48.260;16.432;2023-02-28T02:15:11;12.98;;;4.35;;
4021;SDS011;2025;48.260;16.432;2023-02-28T02:17:43;12.07;;;5.38;;
4021;SDS011;2025;48.260;16.432;2023-02-28T02:23:20;13.50;;;4.57;;
4021;SDS011;2025;48.260;16.432;2023-02-28T02:29:19;13.48;;;6.00;;
4021;SDS011;2025;48.260;16.432;2023-02-28T02:35:00;14.57;;;4.88;;
4021;SDS011;2025;48.260;16.432;2023-02-28T02:37:36;13.18;;;5.60;;
4021;SDS011;2025;48.260;16.432;2023-02-28T02:40:09;14.00;;;5.70;;
4021;SDS011;2025;48.260;16.432;2023-02-28T02:42:41;12.82;;;5.50;;
4021;SDS011;2025;48.260;16.432;2023-02-28T02:45:15;11.18;;;4.93;;
4021;SDS011;2025;48.260;16.432;2023-02-28T02:47:47;9.55;;;4.55;;
4021;SDS011;2025;48.260;16.432;2023-02-28T02:50:19;9.68;;;4.63;;
4021;SDS011;2025;48.260;16.432;2023-02-28T02:52:52;13.82;;;4.72;;
4021;SDS011;2025;48.260;16.432;2023-02-28T02:55:23;13.23;;;4.55;;
4021;SDS011;2025;48.260;16.432;2023-02-28T02:57:52;12.18;;;4.85;;
4021;SDS011;2025;48.260;16.432;2023-02-28T03:00:24;15.70;;;5.47;;
4021;SDS011;2025;48.260;16.432;2023-02-28T03:02:56;12.93;;;3.83;;
4021;SDS011;2025;48.260;16.432;2023-02-28T03:05:25;10.85;;;4.00;;
4021;SDS011;2025;48.260;16.432;2023-02-28T03:07:56;11.73;;;4.40;;
4021;SDS011;2025;48.260;16.432;2023-02-28T03:16:21;10.90;;;3.30;;
4021;SDS011;2025;48.260;16.432;2023-02-28T03:19:01;10.35;;;4.30;;
4021;SDS011;2025;48.260;16.432;2023-02-28T03:21:40;12.10;;;4.75;;
4021;SDS011;2025;48.260;16.432;2023-02-28T03:24:10;11.27;;;4.93;;
4021;SDS011;2025;48.260;16.432;2023-02-28T03:26:43;14.75;;;5.07;;
4021;SDS011;2025;48.260;16.432;2023-02-28T03:29:18;10.98;;;3.80;;
4021;SDS011;2025;48.260;16.432;2023-02-28T03:31:53;11.32;;;4.15;;
4021;SDS011;2025;48.260;16.432;2023-02-28T03:34:26;13.13;;;4.63;;
4021;SDS011;2025;48.260;16.432;2023-02-28T03:37:01;10.73;;;5.47;;
4021;SDS011;2025;48.260;16.432;2023-02-28T03:39:34;12.57;;;5.28;;
4021;SDS011;2025;48.260;16.432;2023-02-28T03:42:06;11.18;;;4.32;;
4021;SDS011;2025;48.260;16.432;2023-02-28T03:44:38;12.85;;;5.00;;
4021;SDS011;2025;48.260;16.432;2023-02-28T03:47:09;13.95;;;5.75;;
4021;SDS011;2025;48.260;16.432;2023-02-28T03:49:40;11.57;;;4.53;;
4021;SDS011;2025;48.260;16.432;2023-02-28T03:54:41;11.43;;;4.25;;
4021;SDS011;2025;48.260;16.432;2023-02-28T03:57:12;12.27;;;4.78;;
4021;SDS011;2025;48.260;16.432;2023-02-28T03:59:47;11.88;;;5.03;;
4021;SDS011;2025;48.260;16.432;2023-02-28T04:04:46;10.63;;;4.50;;
4021;SDS011;2025;48.260;16.432;2023-02-28T04:07:14;12.32;;;5.38;;
4021;SDS011;2025;48.260;16.432;2023-02-28T04:09:41;16.23;;;5.00;;
4021;SDS011;2025;48.260;16.432;2023-02-28T04:12:09;11.23;;;4.10;;
4021;SDS011;2025;48.260;16.432;2023-02-28T04:17:02;13.88;;;6.05;;
4021;SDS011;2025;48.260;16.432;2023-02-28T04:19:29;14.15;;;5.20;;
4021;SDS011;2025;48.260;16.432;2023-02-28T04:21:56;13.35;;;4.90;;
4021;SDS011;2025;48.260;16.432;2023-02-28T04:26:53;11.63;;;3.88;;
4021;SDS011;2025;48.260;16.432;2023-02-28T04:29:22;10.75;;;3.95;;
4021;SDS011;2025;48.260;16.432;2023-02-28T04:31:50;11.23;;;5.57;;
4021;SDS011;2025;48.260;16.432;2023-02-28T04:34:19;13.55;;;5.60;;
4021;SDS011;2025;48.260;16.432;2023-02-28T04:36:46;10.68;;;4.45;;
4021;SDS011;2025;48.260;16.432;2023-02-28T04:39:14;15.63;;;5.65;;
4021;SDS011;2025;48.260;16.432;2023-02-28T04:41:44;10.55;;;4.10;;
4021;SDS011;2025;48.260;16.432;2023-02-28T04:44:12;15.23;;;5.10;;
4021;SDS011;2025;48.260;16.432;2023-02-28T04:46:39;11.05;;;4.72;;
4021;SDS011;2025;48.260;16.432;2023-02-28T04:49:06;11.63;;;5.18;;
4021;SDS011;2025;48.260;16.432;2023-02-28T04:51:34;11.43;;;5.40;;
4021;SDS011;2025;48.260;16.432;2023-02-28T04:54:01;15.70;;;5.80;;
4021;SDS011;2025;48.260;16.432;2023-02-28T04:56:28;13.32;;;5.00;;
4021;SDS011;2025;48.260;16.432;2023-02-28T05:01:24;11.90;;;5.03;;
4021;SDS011;2025;48.260;16.432;2023-02-28T05:03:52;13.48;;;5.72;;
4021;SDS011;2025;48.260;16.432;2023-02-28T05:06:21;13.10;;;4.35;;
4021;SDS011;2025;48.260;16.432;2023-02-28T05:08:49;14.80;;;4.65;;
4021;SDS011;2025;48.260;16.432;2023-02-28T05:11:18;12.98;;;4.85;;
4021;SDS011;2025;48.260;16.432;2023-02-28T05:13:46;14.60;;;5.35;;
4021;SDS011;2025;48.260;16.432;2023-02-28T05:16:16;14.77;;;5.82;;
4021;SDS011;2025;48.260;16.432;2023-02-28T05:18:43;12.98;;;6.57;;
4021;SDS011;2025;48.260;16.432;2023-02-28T05:21:22;13.48;;;5.97;;
4021;SDS011;2025;48.260;16.432;2023-02-28T05:23:51;15.27;;;5.80;;
4021;SDS011;2025;48.260;16.432;2023-02-28T05:26:19;16.17;;;5.88;;
4021;SDS011;2025;48.260;16.432;2023-02-28T05:28:46;10.50;;;4.75;;
4021;SDS011;2025;48.260;16.432;2023-02-28T05:31:14;13.45;;;6.30;;
4021;SDS011;2025;48.260;16.432;2023-02-28T05:33:42;15.43;;;5.30;;
4021;SDS011;2025;48.260;16.432;2023-02-28T05:36:09;14.63;;;6.28;;
4021;SDS011;2025;48.260;16.432;2023-02-28T05:41:05;12.27;;;6.05;;
4021;SDS011;2025;48.260;16.432;2023-02-28T05:43:33;11.48;;;5.40;;
4021;SDS011;2025;48.260;16.432;2023-02-28T05:46:01;11.23;;;5.57;;
4021;SDS011;2025;48.260;16.432;2023-02-28T05:48:32;13.25;;;4.47;;
4021;SDS011;2025;48.260;16.432;2023-02-28T05:50:59;14.30;;;6.20;;
4021;SDS011;2025;48.260;16.432;2023-02-28T05:55:53;13.18;;;5.13;;
4021;SDS011;2025;48.260;16.432;2023-02-28T05:58:20;14.73;;;5.50;;
4021;SDS011;2025;48.260;16.432;2023-02-28T06:00:48;13.05;;;5.47;;
4021;SDS011;2025;48.260;16.432;2023-02-28T06:03:15;11.00;;;5.10;;
4021;SDS011;2025;48.260;16.432;2023-02-28T06:05:43;14.82;;;5.15;;
4021;SDS011;2025;48.260;16.432;2023-02-28T06:08:10;24.67;;;8.32;;
4021;SDS011;2025;48.260;16.432;2023-02-28T06:10:37;15.45;;;6.65;;
4021;SDS011;2025;48.260;16.432;2023-02-28T06:13:04;17.05;;;6.93;;
4021;SDS011;2025;48.260;16.432;2023-02-28T06:15:31;13.77;;;7.13;;
4021;SDS011;2025;48.260;16.432;2023-02-28T06:17:59;14.77;;;6.85;;
4021;SDS011;2025;48.260;16.432;2023-02-28T06:20:26;13.60;;;5.72;;
4021;SDS011;2025;48.260;16.432;2023-02-28T06:22:56;15.57;;;6.28;;
4021;SDS011;2025;48.260;16.432;2023-02-28T06:25:24;16.25;;;7.07;;
4021;SDS011;2025;48.260;16.432;2023-02-28T06:27:52;12.63;;;6.07;;
4021;SDS011;2025;48.260;16.432;2023-02-28T06:30:20;18.35;;;6.28;;
4021;SDS011;2025;48.260;16.432;2023-02-28T06:32:49;20.70;;;9.18;;
4021;SDS011;2025;48.260;16.432;2023-02-28T06:35:17;17.65;;;5.70;;
4021;SDS011;2025;48.260;16.432;2023-02-28T06:40:13;17.00;;;6.60;;
4021;SDS011;2025;48.260;16.432;2023-02-28T06:42:40;17.98;;;6.30;;
4021;SDS011;2025;48.260;16.432;2023-02-28T06:45:08;13.30;;;5.97;;
4021;SDS011;2025;48.260;16.432;2023-02-28T06:47:35;14.70;;;6.05;;
4021;SDS011;2025;48.260;16.432;2023-02-28T06:50:03;15.68;;;6.72;;
4021;SDS011;2025;48.260;16.432;2023-02-28T06:52:31;14.63;;;6.13;;
4021;SDS011;2025;48.260;16.432;2023-02-28T06:54:57;17.38;;;6.95;;
4021;SDS011;2025;48.260;16.432;2023-02-28T06:57:28;14.40;;;5.72;;
4021;SDS011;2025;48.260;16.432;2023-02-28T06:59:57;14.98;;;6.13;;
4021;SDS011;2025;48.260;16.432;2023-02-28T07:02:24;17.27;;;7.63;;
4021;SDS011;2025;48.260;16.432;2023-02-28T07:04:51;15.85;;;6.18;;
4021;SDS011;2025;48.260;16.432;2023-02-28T07:09:45;13.70;;;6.20;;
4021;SDS011;2025;48.260;16.432;2023-02-28T07:12:12;19.42;;;7.38;;
4021;SDS011;2025;48.260;16.432;2023-02-28T07:14:40;17.02;;;7.50;;
4021;SDS011;2025;48.260;16.432;2023-02-28T07:17:07;14.77;;;5.75;;
4021;SDS011;2025;48.260;16.432;2023-02-28T07:19:35;15.30;;;6.93;;
4021;SDS011;2025;48.260;16.432;2023-02-28T07:24:29;15.70;;;6.20;;
4021;SDS011;2025;48.260;16.432;2023-02-28T07:26:56;17.80;;;6.97;;
4021;SDS011;2025;48.260;16.432;2023-02-28T07:29:33;16.92;;;6.50;;
4021;SDS011;2025;48.260;16.432;2023-02-28T07:32:04;14.93;;;6.53;;
4021;SDS011;2025;48.260;16.432;2023-02-28T07:34:31;16.95;;;6.20;;
4021;SDS011;2025;48.260;16.432;2023-02-28T07:37:00;13.00;;;5.63;;
4021;SDS011;2025;48.260;16.432;2023-02-28T07:39:28;14.40;;;6.43;;
4021;SDS011;2025;48.260;16.432;2023-02-28T07:44:22;16.67;;;7.43;;
4021;SDS011;2025;48.260;16.432;2023-02-28T07:49:17;16.65;;;7.82;;
4021;SDS011;2025;48.260;16.432;2023-02-28T07:51:44;15.40;;;6.47;;
4021;SDS011;2025;48.260;16.432;2023-02-28T07:56:37;15.65;;;6.53;;
4021;SDS011;2025;48.260;16.432;2023-02-28T08:01:31;17.25;;;6.97;;
4021;SDS011;2025;48.260;16.432;2023-02-28T08:06:26;13.45;;;6.25;;
4021;SDS011;2025;48.260;16.432;2023-02-28T08:08:53;16.15;;;6.68;;
4021;SDS011;2025;48.260;16.432;2023-02-28T08:11:21;15.27;;;6.47;;
4021;SDS011;2025;48.260;16.432;2023-02-28T08:13:48;12.70;;;5.45;;
4021;SDS011;2025;48.260;16.432;2023-02-28T08:16:15;15.30;;;7.50;;
4021;SDS011;2025;48.260;16.432;2023-02-28T08:18:47;17.50;;;7.70;;
4021;SDS011;2025;48.260;16.432;2023-02-28T08:21:14;20.30;;;7.35;;
4021;SDS011;2025;48.260;16.432;2023-02-28T08:23:42;14.90;;;6.97;;
4021;SDS011;2025;48.260;16.432;2023-02-28T08:26:09;19.25;;;7.60;;
4021;SDS011;2025;48.260;16.432;2023-02-28T08:28:36;18.02;;;6.50;;
4021;SDS011;2025;48.260;16.432;2023-02-28T08:31:06;14.32;;;6.78;;
4021;SDS011;2025;48.260;16.432;2023-02-28T08:33:34;12.45;;;6.32;;
4021;SDS011;2025;48.260;16.432;2023-02-28T08:36:04;15.60;;;6.55;;
4021;SDS011;2025;48.260;16.432;2023-02-28T08:38:32;19.00;;;7.57;;
4021;SDS011;2025;48.260;16.432;2023-02-28T08:41:01;11.73;;;5.88;;
4021;SDS011;2025;48.260;16.432;2023-02-28T08:43:31;17.02;;;7.72;;
4021;SDS011;2025;48.260;16.432;2023-02-28T08:45:57;15.77;;;7.15;;
4021;SDS011;2025;48.260;16.432;2023-02-28T08:48:24;16.83;;;8.23;;
4021;SDS011;2025;48.260;16.432;2023-02-28T08:50:55;16.25;;;7.55;;
4021;SDS011;2025;48.260;16.432;2023-02-28T08:53:23;16.25;;;7.45;;
4021;SDS011;2025;48.260;16.432;2023-02-28T08:55:55;13.23;;;6.60;;
4021;SDS011;2025;48.260;16.432;2023-02-28T08:58:25;17.45;;;7.03;;
4021;SDS011;2025;48.260;16.432;2023-02-28T09:00:52;13.32;;;7.03;;
4021;SDS011;2025;48.260;16.432;2023-02-28T09:03:19;18.38;;;8.93;;
4021;SDS011;2025;48.260;16.432;2023-02-28T09:05:53;17.17;;;7.43;;
4021;SDS011;2025;48.260;16.432;2023-02-28T09:08:21;13.52;;;8.02;;
4021;SDS011;2025;48.260;16.432;2023-02-28T09:10:49;17.92;;;7.63;;
4021;SDS011;2025;48.260;16.432;2023-02-28T09:13:16;13.73;;;7.68;;
4021;SDS011;2025;48.260;16.432;2023-02-28T09:15:47;14.35;;;6.78;;
4021;SDS011;2025;48.260;16.432;2023-02-28T09:18:14;15.48;;;7.18;;
4021;SDS011;2025;48.260;16.432;2023-02-28T09:20:41;16.80;;;6.63;;
4021;SDS011;2025;48.260;16.432;2023-02-28T09:23:10;14.75;;;6.80;;
4021;SDS011;2025;48.260;16.432;2023-02-28T09:25:38;12.98;;;6.32;;
4021;SDS011;2025;48.260;16.432;2023-02-28T09:28:11;18.02;;;7.38;;
4021;SDS011;2025;48.260;16.432;2023-02-28T09:30:39;13.40;;;7.45;;
4021;SDS011;2025;48.260;16.432;2023-02-28T09:33:07;16.02;;;7.20;;
4021;SDS011;2025;48.260;16.432;2023-02-28T09:35:34;14.18;;;6.35;;
4021;SDS011;2025;48.260;16.432;2023-02-28T09:38:02;16.13;;;6.35;;
4021;SDS011;2025;48.260;16.432;2023-02-28T09:40:30;20.23;;;7.97;;
4021;SDS011;2025;48.260;16.432;2023-02-28T09:42:57;18.73;;;8.90;;
4021;SDS011;2025;48.260;16.432;2023-02-28T09:45:26;16.58;;;7.70;;
4021;SDS011;2025;48.260;16.432;2023-02-28T09:47:58;15.80;;;7.00;;
4021;SDS011;2025;48.260;16.432;2023-02-28T09:50:32;27.40;;;8.50;;
4021;SDS011;2025;48.260;16.432;2023-02-28T09:53:02;17.75;;;7.35;;
4021;SDS011;2025;48.260;16.432;2023-02-28T09:55:37;15.77;;;7.97;;
4021;SDS011;2025;48.260;16.432;2023-02-28T09:58:10;16.35;;;7.65;;
4021;SDS011;2025;48.260;16.432;2023-02-28T10:00:55;14.45;;;6.47;;
4021;SDS011;2025;48.260;16.432;2023-02-28T10:03:27;15.93;;;7.70;;
4021;SDS011;2025;48.260;16.432;2023-02-28T10:06:01;14.77;;;6.85;;
4021;SDS011;2025;48.260;16.432;2023-02-28T10:08:39;13.43;;;6.82;;
4021;SDS011;2025;48.260;16.432;2023-02-28T10:11:12;17.88;;;7.57;;
4021;SDS011;2025;48.260;16.432;2023-02-28T10:13:46;17.65;;;7.22;;
4021;SDS011;2025;48.260;16.432;2023-02-28T10:16:22;18.00;;;7.55;;
4021;SDS011;2025;48.260;16.432;2023-02-28T10:19:02;18.48;;;8.32;;
4021;SDS011;2025;48.260;16.432;2023-02-28T10:21:36;14.65;;;7.65;;
4021;SDS011;2025;48.260;16.432;2023-02-28T10:24:11;15.77;;;8.48;;
4021;SDS011;2025;48.260;16.432;2023-02-28T10:26:47;18.38;;;7.90;;
4021;SDS011;2025;48.260;16.432;2023-02-28T10:29:14;21.05;;;9.23;;
4021;SDS011;2025;48.260;16.432;2023-02-28T10:31:41;24.13;;;7.60;;
4021;SDS011;2025;48.260;16.432;2023-02-28T10:34:11;14.95;;;6.50;;
4021;SDS011;2025;48.260;16.432;2023-02-28T10:36:40;14.73;;;7.45;;
4021;SDS011;2025;48.260;16.432;2023-02-28T10:42:02;16.33;;;7.50;;
4021;SDS011;2025;48.260;16.432;2023-02-28T10:44:29;15.75;;;7.63;;
4021;SDS011;2025;48.260;16.432;2023-02-28T10:46:56;14.93;;;6.82;;
4021;SDS011;2025;48.260;16.432;2023-02-28T10:49:23;15.50;;;7.22;;
4021;SDS011;2025;48.260;16.432;2023-02-28T10:51:54;15.05;;;7.40;;
4021;SDS011;2025;48.260;16.432;2023-02-28T10:54:24;14.60;;;7.40;;
4021;SDS011;2025;48.260;16.432;2023-02-28T10:57:05;13.93;;;6.22;;
4021;SDS011;2025;48.260;16.432;2023-02-28T10:59:41;13.68;;;6.20;;
4021;SDS011;2025;48.260;16.432;2023-02-28T11:04:58;14.23;;;5.68;;
4021;SDS011;2025;48.260;16.432;2023-02-28T11:07:26;12.18;;;6.40;;
4021;SDS011;2025;48.260;16.432;2023-02-28T11:09:54;14.10;;;5.72;;
4021;SDS011;2025;48.260;16.432;2023-02-28T11:12:23;12.35;;;5.40;;
4021;SDS011;2025;48.260;16.432;2023-02-28T11:14:54;15.20;;;6.80;;
4021;SDS011;2025;48.260;16.432;2023-02-28T11:17:23;13.40;;;7.72;;
4021;SDS011;2025;48.260;16.432;2023-02-28T11:19:53;14.70;;;7.10;;
4021;SDS011;2025;48.260;16.432;2023-02-28T11:22:23;14.02;;;7.32;;
4021;SDS011;2025;48.260;16.432;2023-02-28T11:24:55;15.30;;;6.53;;
4021;SDS011;2025;48.260;16.432;2023-02-28T11:27:25;13.95;;;7.30;;
4021;SDS011;2025;48.260;16.432;2023-02-28T11:30:17;13.70;;;7.68;;
4021;SDS011;2025;48.260;16.432;2023-02-28T11:32:54;16.58;;;7.65;;
4021;SDS011;2025;48.260;16.432;2023-02-28T11:35:23;14.55;;;6.97;;
4021;SDS011;2025;48.260;16.432;2023-02-28T11:37:53;15.23;;;6.88;;
4021;SDS011;2025;48.260;16.432;2023-02-28T11:40:23;13.77;;;7.45;;
4021;SDS011;2025;48.260;16.432;2023-02-28T11:43:01;13.65;;;6.95;;
4021;SDS011;2025;48.260;16.432;2023-02-28T11:45:38;13.40;;;7.38;;
4021;SDS011;2025;48.260;16.432;2023-02-28T11:48:14;14.82;;;6.93;;
4021;SDS011;2025;48.260;16.432;2023-02-28T11:50:49;16.60;;;7.38;;
4021;SDS011;2025;48.260;16.432;2023-02-28T11:53:27;14.88;;;7.90;;
4021;SDS011;2025;48.260;16.432;2023-02-28T11:56:08;12.75;;;6.38;;
4021;SDS011;2025;48.260;16.432;2023-02-28T11:58:45;13.38;;;5.82;;
4021;SDS011;2025;48.260;16.432;2023-02-28T12:01:21;14.98;;;7.63;;
4021;SDS011;2025;48.260;16.432;2023-02-28T12:03:58;14.50;;;7.25;;
4021;SDS011;2025;48.260;16.432;2023-02-28T12:06:39;17.40;;;7.50;;
4021;SDS011;2025;48.260;16.432;2023-02-28T12:09:20;14.15;;;7.50;;
4021;SDS011;2025;48.260;16.432;2023-02-28T12:11:59;15.00;;;7.07;;
4021;SDS011;2025;48.260;16.432;2023-02-28T12:14:47;14.10;;;6.75;;
4021;SDS011;2025;48.260;16.432;2023-02-28T12:17:36;13.77;;;6.47;;
4021;SDS011;2025;48.260;16.432;2023-02-28T12:20:14;12.98;;;7.07;;
4021;SDS011;2025;48.260;16.432;2023-02-28T12:22:52;14.50;;;6.90;;
4021;SDS011;2025;48.260;16.432;2023-02-28T12:25:44;14.90;;;8.20;;
4021;SDS011;2025;48.260;16.432;2023-02-28T12:28:27;13.55;;;6.25;;
4021;SDS011;2025;48.260;16.432;2023-02-28T12:30:59;13.95;;;6.68;;
4021;SDS011;2025;48.260;16.432;2023-02-28T12:33:32;13.55;;;6.72;;
4021;SDS011;2025;48.260;16.432;2023-02-28T12:36:03;13.73;;;6.65;;
4021;SDS011;2025;48.260;16.432;2023-02-28T12:38:38;14.18;;;6.80;;
4021;SDS011;2025;48.260;16.432;2023-02-28T12:41:12;13.50;;;7.45;;
4021;SDS011;2025;48.260;16.432;2023-02-28T12:43:43;13.45;;;6.95;;
4021;SDS011;2025;48.260;16.432;2023-02-28T12:46:15;15.73;;;6.68;;
4021;SDS011;2025;48.260;16.432;2023-02-28T12:48:46;12.38;;;6.75;;
4021;SDS011;2025;48.260;16.432;2023-02-28T12:51:17;15.95;;;6.93;;
4021;SDS011;2025;48.260;16.432;2023-02-28T12:53:49;13.10;;;6.47;;
4021;SDS011;2025;48.260;16.432;2023-02-28T12:56:28;13.10;;;6.35;;
4021;SDS011;2025;48.260;16.432;2023-02-28T12:59:01;14.93;;;7.03;;
4021;SDS011;2025;48.260;16.432;2023-02-28T13:01:38;15.68;;;6.93;;
4021;SDS011;2025;48.260;16.432;2023-02-28T13:04:27;14.88;;;6.00;;
4021;SDS011;2025;48.260;16.432;2023-02-28T13:10:11;12.65;;;5.90;;
4021;SDS011;2025;48.260;16.432;2023-02-28T13:12:48;16.40;;;6.28;;
4021;SDS011;2025;48.260;16.432;2023-02-28T13:15:18;11.90;;;5.07;;
4021;SDS011;2025;48.260;16.432;2023-02-28T13:17:49;14.60;;;5.82;;
4021;SDS011;2025;48.260;16.432;2023-02-28T13:20:19;11.95;;;5.70;;
4021;SDS011;2025;48.260;16.432;2023-02-28T13:22:48;12.82;;;6.05;;
4021;SDS011;2025;48.260;16.432;2023-02-28T13:31:33;10.98;;;5.82;;
4021;SDS011;2025;48.260;16.432;2023-02-28T13:34:39;11.75;;;5.70;;
4021;SDS011;2025;48.260;16.432;2023-02-28T13:43:02;11.50;;;5.60;;
4021;SDS011;2025;48.260;16.432;2023-02-28T13:45:30;12.38;;;5.13;;
4021;SDS011;2025;48.260;16.432;2023-02-28T13:48:04;12.40;;;5.93;;
4021;SDS011;2025;48.260;16.432;2023-02-28T13:50:42;12.30;;;5.50;;
4021;SDS011;2025;48.260;16.432;2023-02-28T13:53:26;12.90;;;6.47;;
4021;SDS011;2025;48.260;16.432;2023-02-28T13:56:02;13.50;;;5.78;;
4021;SDS011;2025;48.260;16.432;2023-02-28T13:58:38;11.65;;;4.80;;
4021;SDS011;2025;48.260;16.432;2023-02-28T14:01:17;11.48;;;4.35;;
4021;SDS011;2025;48.260;16.432;2023-02-28T14:04:02;11.38;;;5.72;;
4021;SDS011;2025;48.260;16.432;2023-02-28T14:06:47;10.55;;;5.97;;
4021;SDS011;2025;48.260;16.432;2023-02-28T14:09:18;11.43;;;5.57;;
4021;SDS011;2025;48.260;16.432;2023-02-28T14:11:49;12.10;;;5.20;;
4021;SDS011;2025;48.260;16.432;2023-02-28T14:17:21;12.32;;;5.65;;
4021;SDS011;2025;48.260;16.432;2023-02-28T14:19:50;10.98;;;6.32;;
4021;SDS011;2025;48.260;16.432;2023-02-28T14:22:27;13.38;;;7.18;;
4021;SDS011;2025;48.260;16.432;2023-02-28T14:25:16;12.85;;;7.15;;
4021;SDS011;2025;48.260;16.432;2023-02-28T14:27:49;12.77;;;6.43;;
4021;SDS011;2025;48.260;16.432;2023-02-28T14:30:41;11.85;;;6.20;;
4021;SDS011;2025;48.260;16.432;2023-02-28T14:33:19;12.48;;;6.47;;
4021;SDS011;2025;48.260;16.432;2023-02-28T14:38:45;14.07;;;6.40;;
4021;SDS011;2025;48.260;16.432;2023-02-28T14:41:17;11.57;;;5.78;;
4021;SDS011;2025;48.260;16.432;2023-02-28T14:43:48;13.77;;;5.72;;
4021;SDS011;2025;48.260;16.432;2023-02-28T14:46:19;11.23;;;5.57;;
4021;SDS011;2025;48.260;16.432;2023-02-28T14:48:47;10.63;;;5.38;;
4021;SDS011;2025;48.260;16.432;2023-02-28T14:51:19;11.98;;;6.07;;
4021;SDS011;2025;48.260;16.432;2023-02-28T14:53:49;11.02;;;5.38;;
4021;SDS011;2025;48.260;16.432;2023-02-28T14:56:22;11.88;;;5.13;;
4021;SDS011;2025;48.260;16.432;2023-02-28T14:58:51;10.80;;;4.70;;
4021;SDS011;2025;48.260;16.432;2023-02-28T15:01:20;11.40;;;5.32;;
4021;SDS011;2025;48.260;16.432;2023-02-28T15:03:48;11.63;;;6.15;;
4021;SDS011;2025;48.260;16.432;2023-02-28T15:06:24;11.52;;;5.80;;
4021;SDS011;2025;48.260;16.432;2023-02-28T15:09:06;10.57;;;4.72;;
4021;SDS011;2025;48.260;16.432;2023-02-28T15:11:34;10.63;;;5.38;;
4021;SDS011;2025;48.260;16.432;2023-02-28T15:14:03;13.30;;;5.95;;
4021;SDS011;2025;48.260;16.432;2023-02-28T15:16:31;11.57;;;4.45;;
4021;SDS011;2025;48.260;16.432;2023-02-28T15:19:04;13.75;;;6.35;;
4021;SDS011;2025;48.260;16.432;2023-02-28T15:21:36;11.88;;;5.80;;
4021;SDS011;2025;48.260;16.432;2023-02-28T15:24:06;11.48;;;5.13;;
4021;SDS011;2025;48.260;16.432;2023-02-28T15:26:39;11.00;;;6.22;;
4021;SDS011;2025;48.260;16.432;2023-02-28T15:29:11;13.73;;;6.10;;
4021;SDS011;2025;48.260;16.432;2023-02-28T15:31:43;13.88;;;5.55;;
4021;SDS011;2025;48.260;16.432;2023-02-28T15:34:15;10.88;;;5.63;;
4021;SDS011;2025;48.260;16.432;2023-02-28T15:36:48;12.40;;;6.22;;
4021;SDS011;2025;48.260;16.432;2023-02-28T15:39:19;11.90;;;5.30;;
4021;SDS011;2025;48.260;16.432;2023-02-28T15:48:16;12.57;;;5.22;;
4021;SDS011;2025;48.260;16.432;2023-02-28T15:51:05;13.52;;;5.70;;
4021;SDS011;2025;48.260;16.432;2023-02-28T15:53:54;11.95;;;5.88;;
4021;SDS011;2025;48.260;16.432;2023-02-28T15:56:52;12.25;;;6.13;;
4021;SDS011;2025;48.260;16.432;2023-02-28T15:59:27;12.75;;;5.95;;
4021;SDS011;2025;48.260;16.432;2023-02-28T16:02:03;13.38;;;5.97;;
4021;SDS011;2025;48.260;16.432;2023-02-28T16:04:54;12.00;;;6.43;;
4021;SDS011;2025;48.260;16.432;2023-02-28T16:07:25;11.85;;;5.50;;
4021;SDS011;2025;48.260;16.432;2023-02-28T16:09:54;13.02;;;6.43;;
4021;SDS011;2025;48.260;16.432;2023-02-28T16:12:24;13.18;;;4.95;;
4021;SDS011;2025;48.260;16.432;2023-02-28T16:14:54;11.95;;;5.45;;
4021;SDS011;2025;48.260;16.432;2023-02-28T16:17:23;10.70;;;5.25;;
4021;SDS011;2025;48.260;16.432;2023-02-28T16:19:53;14.55;;;6.40;;
4021;SDS011;2025;48.260;16.432;2023-02-28T16:22:21;11.13;;;5.90;;
4021;SDS011;2025;48.260;16.432;2023-02-28T16:24:48;12.68;;;6.13;;
4021;SDS011;2025;48.260;16.432;2023-02-28T16:27:18;12.63;;;5.90;;
4021;SDS011;2025;48.260;16.432;2023-02-28T16:29:48;14.63;;;6.50;;
4021;SDS011;2025;48.260;16.432;2023-02-28T16:32:15;13.55;;;5.25;;
4021;SDS011;2025;48.260;16.432;2023-02-28T16:34:43;10.80;;;5.10;;
4021;SDS011;2025;48.260;16.432;2023-02-28T16:37:11;11.25;;;5.82;;
4021;SDS011;2025;48.260;16.432;2023-02-28T16:39:39;9.68;;;4.28;;
4021;SDS011;2025;48.260;16.432;2023-02-28T16:42:09;13.82;;;5.28;;
4021;SDS011;2025;48.260;16.432;2023-02-28T16:44:42;11.15;;;5.13;;
4021;SDS011;2025;48.260;16.432;2023-02-28T16:47:10;11.95;;;5.68;;
4021;SDS011;2025;48.260;16.432;2023-02-28T16:49:38;11.65;;;5.30;;
4021;SDS011;2025;48.260;16.432;2023-02-28T16:52:07;12.10;;;5.65;;
4021;SDS011;2025;48.260;16.432;2023-02-28T16:54:34;12.40;;;5.07;;
4021;SDS011;2025;48.260;16.432;2023-02-28T16:57:01;10.82;;;5.25;;
4021;SDS011;2025;48.260;16.432;2023-02-28T16:59:28;14.23;;;5.78;;
4021;SDS011;2025;48.260;16.432;2023-02-28T17:01:57;15.93;;;6.78;;
4021;SDS011;2025;48.260;16.432;2023-02-28T17:04:24;12.18;;;5.32;;